createdAt,value
2023-03-04T00:01:27.008Z,16.77
2023-03-04T00:03:54.519Z,15.57
2023-03-04T00:06:21.783Z,16.23
2023-03-04T00:08:49.429Z,16.77
2023-03-04T00:11:16.684Z,15.40
2023-03-04T00:13:44.024Z,13.20
2023-03-04T00:16:11.245Z,15.07
2023-03-04T00:18:39.172Z,15.50
2023-03-04T00:21:06.686Z,15.43
2023-03-04T00:23:34.080Z,15.10
2023-03-04T00:26:01.469Z,15.50
2023-03-04T00:28:28.810Z,16.23
2023-03-04T00:30:56.105Z,15.97
2023-03-04T00:33:23.514Z,14.57
2023-03-04T00:35:50.902Z,15.20
2023-03-04T00:38:18.222Z,15.40
2023-03-04T00:40:45.541Z,14.90
2023-03-04T00:43:12.860Z,14.97
2023-03-04T00:45:40.778Z,13.87
2023-03-04T00:48:08.293Z,14.07
2023-03-04T00:50:35.678Z,14.07
2023-03-04T00:53:03.164Z,13.30
2023-03-04T00:55:31.019Z,15.17
2023-03-04T00:57:58.439Z,14.53
2023-03-04T01:00:25.952Z,14.40
2023-03-04T01:02:53.409Z,14.50
2023-03-04T01:05:20.760Z,15.03
2023-03-04T01:07:48.065Z,14.60
2023-03-04T01:10:15.769Z,14.30
2023-03-04T01:12:43.883Z,14.13
2023-03-04T01:15:12.444Z,14.70
2023-03-04T01:17:40.224Z,13.70
2023-03-04T01:20:07.996Z,14.20
2023-03-04T01:22:36.279Z,13.93
2023-03-04T01:25:03.554Z,14.30
2023-03-04T01:27:32.247Z,14.47
2023-03-04T01:29:59.765Z,14.33
2023-03-04T01:32:26.970Z,13.60
2023-03-04T01:34:54.349Z,13.67
2023-03-04T01:37:21.662Z,14.23
2023-03-04T01:39:48.952Z,13.77
2023-03-04T01:42:20.981Z,13.80
2023-03-04T01:44:48.899Z,13.33
2023-03-04T01:47:16.432Z,13.60
2023-03-04T01:49:44.061Z,12.77
2023-03-04T01:52:13.078Z,13.30
2023-03-04T01:54:40.720Z,14.73
2023-03-04T01:57:16.574Z,13.57
2023-03-04T01:59:44.033Z,13.37
2023-03-04T02:02:12.810Z,13.17
2023-03-04T02:04:40.993Z,12.80
2023-03-04T02:07:08.865Z,12.83
2023-03-04T02:09:38.071Z,13.67
2023-03-04T02:12:24.364Z,12.87
2023-03-04T02:14:51.547Z,12.77
2023-03-04T02:17:18.859Z,12.97
2023-03-04T02:19:57.289Z,11.80
2023-03-04T02:22:24.582Z,13.53
2023-03-04T02:25:04.313Z,12.83
2023-03-04T02:27:31.676Z,12.90
2023-03-04T02:29:58.960Z,12.67
2023-03-04T02:32:27.619Z,12.40
2023-03-04T02:34:55.043Z,13.43
2023-03-04T02:37:22.416Z,12.47
2023-03-04T02:39:53.084Z,12.70
2023-03-04T02:45:05.559Z,13.10
2023-03-04T02:47:33.088Z,12.67
2023-03-04T02:50:00.401Z,12.70
2023-03-04T02:52:29.103Z,12.67
2023-03-04T02:54:57.978Z,13.10
2023-03-04T02:57:25.982Z,13.20
2023-03-04T02:59:55.052Z,13.30
2023-03-04T03:02:25.145Z,13.33
2023-03-04T03:04:52.451Z,12.53
2023-03-04T03:07:21.299Z,12.77
2023-03-04T03:09:49.681Z,12.97
2023-03-04T03:12:18.432Z,12.20
2023-03-04T03:14:45.701Z,12.57
2023-03-04T03:17:15.744Z,12.00
2023-03-04T03:19:43.065Z,12.53
2023-03-04T03:22:11.148Z,12.77
2023-03-04T03:24:38.540Z,13.27
2023-03-04T03:27:06.190Z,12.83
2023-03-04T03:29:34.019Z,12.83
2023-03-04T03:32:01.466Z,12.93
2023-03-04T03:34:28.838Z,11.33
2023-03-04T03:36:56.174Z,13.00
2023-03-04T03:39:23.992Z,12.40
2023-03-04T03:41:51.354Z,12.77
2023-03-04T03:44:18.735Z,13.13
2023-03-04T03:46:46.932Z,11.83
2023-03-04T03:49:14.271Z,12.10
2023-03-04T03:51:41.795Z,12.20
2023-03-04T03:54:09.116Z,13.23
2023-03-04T03:56:36.351Z,12.87
2023-03-04T03:59:03.628Z,12.37
2023-03-04T04:01:30.957Z,12.87
2023-03-04T04:03:58.172Z,13.43
2023-03-04T04:06:25.624Z,13.97
2023-03-04T04:08:53.319Z,12.50
2023-03-04T04:11:20.610Z,12.27
2023-03-04T04:13:47.874Z,12.03
2023-03-04T04:16:15.264Z,12.10
2023-03-04T04:18:42.579Z,12.30
2023-03-04T04:21:10.148Z,11.90
2023-03-04T04:23:37.425Z,11.57
2023-03-04T04:26:04.908Z,12.47
2023-03-04T04:28:32.176Z,12.00
2023-03-04T04:30:59.478Z,11.93
2023-03-04T04:33:27.062Z,11.50
2023-03-04T04:35:54.433Z,11.57
2023-03-04T04:38:21.622Z,11.33
2023-03-04T04:40:48.861Z,11.10
2023-03-04T04:43:16.118Z,11.73
2023-03-04T04:45:43.395Z,12.23
2023-03-04T04:48:10.689Z,12.27
2023-03-04T04:50:37.893Z,12.57
2023-03-04T04:53:05.284Z,11.60
2023-03-04T04:55:33.344Z,12.10
2023-03-04T04:58:00.585Z,11.83
2023-03-04T05:00:27.825Z,11.63
2023-03-04T05:02:55.113Z,12.40
2023-03-04T05:05:22.338Z,12.50
2023-03-04T05:07:50.027Z,11.97
2023-03-04T05:10:17.513Z,12.43
2023-03-04T05:12:45.716Z,11.50
2023-03-04T05:15:13.105Z,11.23
2023-03-04T05:17:40.391Z,12.47
2023-03-04T05:20:08.975Z,11.90
2023-03-04T05:22:36.185Z,12.03
2023-03-04T05:25:03.948Z,11.27
2023-03-04T05:27:31.150Z,12.63
2023-03-04T05:30:01.308Z,10.87
2023-03-04T05:32:28.912Z,12.33
2023-03-04T05:34:56.221Z,11.10
2023-03-04T05:37:42.022Z,11.03
2023-03-04T05:40:09.871Z,11.03
2023-03-04T05:42:37.166Z,11.40
2023-03-04T05:45:04.496Z,11.53
2023-03-04T05:47:31.822Z,10.37
2023-03-04T05:49:59.170Z,11.53
2023-03-04T05:52:26.493Z,11.20
2023-03-04T05:54:53.661Z,10.77
2023-03-04T05:57:21.020Z,10.53
2023-03-04T05:59:48.294Z,11.10
2023-03-04T06:02:15.766Z,10.50
2023-03-04T06:04:43.133Z,10.50
2023-03-04T06:07:10.405Z,11.90
2023-03-04T06:09:37.795Z,11.70
2023-03-04T06:12:05.190Z,10.53
2023-03-04T06:14:32.425Z,10.67
2023-03-04T06:16:59.742Z,11.00
2023-03-04T06:19:27.024Z,9.27
2023-03-04T06:21:54.290Z,10.80
2023-03-04T06:24:21.716Z,9.77
2023-03-04T06:26:48.985Z,10.67
2023-03-04T06:29:16.365Z,10.20
2023-03-04T06:31:43.671Z,10.47
2023-03-04T06:34:11.134Z,11.33
2023-03-04T06:36:38.457Z,10.30
2023-03-04T06:39:06.143Z,11.20
2023-03-04T06:41:33.697Z,10.70
2023-03-04T06:44:01.697Z,10.80
2023-03-04T06:46:30.550Z,10.80
2023-03-04T06:48:58.144Z,10.33
2023-03-04T06:51:25.497Z,9.50
2023-03-04T06:53:52.741Z,10.17
2023-03-04T06:56:20.144Z,10.83
2023-03-04T06:58:47.565Z,10.70
2023-03-04T07:01:23.502Z,11.03
2023-03-04T07:03:51.969Z,12.93
2023-03-04T07:06:21.145Z,10.83
2023-03-04T07:08:49.423Z,10.60
2023-03-04T07:11:17.002Z,10.27
2023-03-04T07:13:44.302Z,10.60
2023-03-04T07:16:12.732Z,11.93
2023-03-04T07:18:40.372Z,11.20
2023-03-04T07:21:08.120Z,10.80
2023-03-04T07:23:36.126Z,11.67
2023-03-04T07:26:03.864Z,10.47
2023-03-04T07:28:31.109Z,10.93
2023-03-04T07:30:58.323Z,11.53
2023-03-04T07:33:25.602Z,11.40
2023-03-04T07:35:59.800Z,11.00
2023-03-04T07:38:27.024Z,11.03
2023-03-04T07:40:59.849Z,10.60
2023-03-04T07:43:27.180Z,10.33
2023-03-04T07:46:00.549Z,10.87
2023-03-04T07:48:28.319Z,10.47
2023-03-04T07:51:09.657Z,10.73
2023-03-04T07:53:37.491Z,10.13
2023-03-04T07:56:05.668Z,10.53
2023-03-04T07:58:32.997Z,9.90
2023-03-04T08:01:00.446Z,9.43
2023-03-04T08:03:29.755Z,10.10
2023-03-04T08:05:57.007Z,9.93
2023-03-04T08:08:24.235Z,9.20
2023-03-04T08:10:51.473Z,8.93
2023-03-04T08:13:18.748Z,9.97
2023-03-04T08:15:46.002Z,9.60
2023-03-04T08:18:14.395Z,9.27
2023-03-04T08:20:44.451Z,9.33
2023-03-04T08:23:11.719Z,9.37
2023-03-04T08:25:39.685Z,9.93
2023-03-04T08:28:07.209Z,10.73
2023-03-04T08:30:34.414Z,8.93
2023-03-04T08:33:02.557Z,8.17
2023-03-04T08:35:30.239Z,9.13
2023-03-04T08:37:57.498Z,8.37
2023-03-04T08:40:26.516Z,9.23
2023-03-04T08:42:54.018Z,8.87
2023-03-04T08:45:21.328Z,8.80
2023-03-04T08:47:48.707Z,8.77
2023-03-04T08:50:16.014Z,8.90
2023-03-04T08:52:43.267Z,10.07
2023-03-04T08:55:10.692Z,8.87
2023-03-04T08:57:38.094Z,8.80
2023-03-04T09:00:05.597Z,9.83
2023-03-04T09:02:32.998Z,8.27
2023-03-04T09:05:00.236Z,8.57
2023-03-04T09:07:27.546Z,8.80
2023-03-04T09:09:54.855Z,7.83
2023-03-04T09:12:22.119Z,8.70
2023-03-04T09:15:01.154Z,8.00
2023-03-04T09:17:35.974Z,7.93
2023-03-04T09:20:04.624Z,8.07
2023-03-04T09:22:32.299Z,8.03
2023-03-04T09:24:59.606Z,8.27
2023-03-04T09:27:26.991Z,8.40
2023-03-04T09:29:54.207Z,8.13
2023-03-04T09:32:21.590Z,7.70
2023-03-04T09:34:48.908Z,7.70
2023-03-04T09:37:16.896Z,8.40
2023-03-04T09:39:44.151Z,7.97
2023-03-04T09:42:14.906Z,7.80
2023-03-04T09:44:43.830Z,7.17
2023-03-04T09:47:18.451Z,7.17
2023-03-04T09:49:55.532Z,6.60
2023-03-04T09:52:41.374Z,6.70
2023-03-04T09:55:26.366Z,7.03
2023-03-04T09:57:58.544Z,6.50
2023-03-04T10:00:26.024Z,6.50
2023-03-04T10:02:53.352Z,6.90
2023-03-04T10:05:21.897Z,6.40
2023-03-04T10:07:59.687Z,6.10
2023-03-04T10:10:27.300Z,5.73
2023-03-04T10:12:56.174Z,6.80
2023-03-04T10:15:23.651Z,6.20
2023-03-04T10:17:54.728Z,6.60
2023-03-04T10:20:23.797Z,6.73
2023-03-04T10:22:52.578Z,6.20
2023-03-04T10:25:24.442Z,6.43
2023-03-04T10:28:03.125Z,6.40
2023-03-04T10:30:33.182Z,8.93
2023-03-04T10:33:00.593Z,5.47
2023-03-04T10:35:34.183Z,6.60
2023-03-04T10:38:03.123Z,6.07
2023-03-04T10:40:30.574Z,6.40
2023-03-04T10:43:00.393Z,5.93
2023-03-04T10:45:31.167Z,5.00
2023-03-04T10:47:58.950Z,6.07
2023-03-04T10:50:27.840Z,5.80
2023-03-04T10:52:56.289Z,5.00
2023-03-04T10:55:26.869Z,5.23
2023-03-04T10:58:14.843Z,5.97
2023-03-04T11:00:42.207Z,5.60
2023-03-04T11:03:29.602Z,5.20
2023-03-04T11:06:13.411Z,6.43
2023-03-04T11:08:41.948Z,5.77
2023-03-04T11:11:46.024Z,5.43
2023-03-04T11:14:17.973Z,5.33
2023-03-04T11:16:53.219Z,5.13
2023-03-04T11:19:21.847Z,5.13
2023-03-04T11:21:50.070Z,4.90
2023-03-04T11:24:28.924Z,5.23
2023-03-04T11:30:20.609Z,5.27
2023-03-04T11:32:49.682Z,4.93
2023-03-04T11:35:19.946Z,4.77
2023-03-04T11:38:05.424Z,4.70
2023-03-04T11:40:39.484Z,4.67
2023-03-04T11:43:16.139Z,4.27
2023-03-04T11:45:59.921Z,4.40
2023-03-04T11:48:45.624Z,4.03
2023-03-04T11:51:25.052Z,4.70
2023-03-04T11:53:58.747Z,4.40
2023-03-04T11:56:35.395Z,4.37
2023-03-04T11:59:21.644Z,4.63
2023-03-04T12:01:54.769Z,4.43
2023-03-04T12:04:39.731Z,4.47
2023-03-04T12:07:12.822Z,4.50
2023-03-04T12:09:58.594Z,4.37
2023-03-04T12:12:35.301Z,4.60
2023-03-04T12:15:08.177Z,4.20
2023-03-04T12:17:44.723Z,3.73
2023-03-04T12:20:30.827Z,3.83
2023-03-04T12:22:58.160Z,4.13
2023-03-04T12:25:33.850Z,4.50
2023-03-04T12:28:04.178Z,4.20
2023-03-04T12:30:34.601Z,4.20
2023-03-04T12:33:14.268Z,4.07
2023-03-04T12:36:08.150Z,4.10
2023-03-04T12:38:55.704Z,4.10
2023-03-04T12:41:35.484Z,3.80
2023-03-04T12:44:32.004Z,3.83
2023-03-04T12:46:59.330Z,3.50
2023-03-04T12:49:27.004Z,4.10
2023-03-04T12:52:00.025Z,3.77
2023-03-04T12:54:27.413Z,3.70
2023-03-04T12:56:57.590Z,4.47
2023-03-04T12:59:26.684Z,4.63
2023-03-04T13:02:05.563Z,4.20
2023-03-04T13:04:52.645Z,2.67
2023-03-04T13:07:34.950Z,4.00
2023-03-04T13:10:05.739Z,3.50
2023-03-04T13:12:46.855Z,3.73
2023-03-04T13:15:14.057Z,4.27
2023-03-04T13:17:46.513Z,3.80
2023-03-04T13:20:13.812Z,3.67
2023-03-04T13:22:41.134Z,3.87
2023-03-04T13:25:27.384Z,4.07
2023-03-04T13:28:03.844Z,4.00
2023-03-04T13:30:38.221Z,3.80
2023-03-04T13:33:13.596Z,3.70
2023-03-04T13:35:49.734Z,3.80
2023-03-04T13:38:23.137Z,3.90
2023-03-04T13:40:59.442Z,3.40
2023-03-04T13:43:41.295Z,3.23
2023-03-04T13:46:21.148Z,3.93
2023-03-04T13:48:51.422Z,3.33
2023-03-04T13:51:30.786Z,2.77
2023-03-04T13:54:02.792Z,3.03
2023-03-04T13:56:46.384Z,2.13
2023-03-04T13:59:32.706Z,2.60
2023-03-04T14:02:01.456Z,2.40
2023-03-04T14:04:36.880Z,2.43
2023-03-04T14:07:18.920Z,2.23
2023-03-04T14:10:05.121Z,2.40
2023-03-04T14:12:36.716Z,2.80
2023-03-04T14:15:06.704Z,1.87
2023-03-04T14:17:37.004Z,2.30
2023-03-04T14:20:05.365Z,2.10
2023-03-04T14:22:42.769Z,2.47
2023-03-04T14:25:25.521Z,2.40
2023-03-04T14:28:13.117Z,2.50
2023-03-04T14:30:43.978Z,2.63
2023-03-04T14:33:22.953Z,2.50
2023-03-04T14:35:52.191Z,2.73
2023-03-04T14:38:19.538Z,2.80
2023-03-04T14:40:49.496Z,2.30
2023-03-04T14:43:20.833Z,2.63
2023-03-04T14:45:50.149Z,2.50
2023-03-04T14:48:23.504Z,2.53
2023-03-04T14:50:51.751Z,2.70
2023-03-04T14:53:20.423Z,2.70
2023-03-04T14:56:04.534Z,3.00
2023-03-04T14:58:35.645Z,2.60
2023-03-04T15:01:20.702Z,2.40
2023-03-04T15:04:02.472Z,3.03
2023-03-04T15:06:31.996Z,3.10
2023-03-04T15:09:09.854Z,2.40
2023-03-04T15:11:46.497Z,2.37
2023-03-04T15:14:32.812Z,3.20
2023-03-04T15:17:00.254Z,2.27
2023-03-04T15:19:30.077Z,2.10
2023-03-04T15:22:04.118Z,1.70
2023-03-04T15:24:31.350Z,1.87
2023-03-04T15:26:58.596Z,2.03
2023-03-04T15:29:25.943Z,2.27
2023-03-04T15:31:53.434Z,2.23
2023-03-04T15:34:21.286Z,1.93
2023-03-04T15:36:50.383Z,2.00
2023-03-04T15:39:18.528Z,2.10
2023-03-04T15:41:50.711Z,2.10
2023-03-04T15:44:18.125Z,2.13
2023-03-04T15:46:45.489Z,1.70
2023-03-04T15:49:12.994Z,1.90
2023-03-04T15:51:40.514Z,1.93
2023-03-04T15:54:11.274Z,1.87
2023-03-04T15:56:58.379Z,1.90
2023-03-04T15:59:25.821Z,2.13
2023-03-04T16:01:53.107Z,1.97
2023-03-04T16:04:21.474Z,1.80
2023-03-04T16:06:50.532Z,1.83
2023-03-04T16:09:20.979Z,1.80
2023-03-04T16:11:48.327Z,1.97
2023-03-04T16:14:16.146Z,2.77
2023-03-04T16:16:44.335Z,3.03
2023-03-04T16:19:11.729Z,1.80
2023-03-04T16:21:38.965Z,1.80
2023-03-04T16:24:06.474Z,2.10
2023-03-04T16:26:34.182Z,2.30
2023-03-04T16:29:02.368Z,1.80
2023-03-04T16:31:29.883Z,2.00
2023-03-04T16:33:57.280Z,2.13
2023-03-04T16:36:26.328Z,2.07
2023-03-04T16:38:57.208Z,2.27
2023-03-04T16:41:27.852Z,2.17
2023-03-04T16:43:56.967Z,2.67
2023-03-04T16:46:24.312Z,2.10
2023-03-04T16:48:51.530Z,2.10
2023-03-04T16:51:20.760Z,2.20
2023-03-04T16:53:48.900Z,2.10
2023-03-04T16:56:17.480Z,2.17
2023-03-04T16:58:45.156Z,4.37
2023-03-04T17:01:20.210Z,2.83
2023-03-04T17:03:47.833Z,2.20
2023-03-04T17:06:15.653Z,2.80
2023-03-04T17:08:44.210Z,2.90
2023-03-04T17:11:22.367Z,2.70
2023-03-04T17:13:50.121Z,2.50
2023-03-04T17:16:17.444Z,2.80
2023-03-04T17:18:46.107Z,2.40
2023-03-04T17:21:14.886Z,2.33
2023-03-04T17:23:42.500Z,3.00
2023-03-04T17:26:09.728Z,2.43
2023-03-04T17:28:37.190Z,2.50
2023-03-04T17:31:11.326Z,2.70
2023-03-04T17:33:38.655Z,2.50
2023-03-04T17:36:06.407Z,3.10
2023-03-04T17:38:33.967Z,2.73
2023-03-04T17:43:54.650Z,2.67
2023-03-04T17:46:23.480Z,2.90
2023-03-04T17:48:52.562Z,2.67
2023-03-04T17:51:19.918Z,2.33
2023-03-04T17:53:47.193Z,2.40
2023-03-04T17:56:14.409Z,2.20
2023-03-04T17:58:43.294Z,2.40
2023-03-04T18:01:20.843Z,2.20
2023-03-04T18:03:48.436Z,2.50
2023-03-04T18:06:17.063Z,2.60
2023-03-04T18:08:44.347Z,2.17
2023-03-04T18:11:11.755Z,2.30
2023-03-04T18:13:39.240Z,2.23
2023-03-04T18:16:06.577Z,2.40
2023-03-04T18:18:33.857Z,2.17
2023-03-04T18:21:01.463Z,2.07
2023-03-04T18:23:29.262Z,2.87
2023-03-04T18:25:56.757Z,2.87
2023-03-04T18:28:24.393Z,2.67
2023-03-04T18:30:52.734Z,2.70
2023-03-04T18:33:20.354Z,2.80
2023-03-04T18:35:47.756Z,3.00
2023-03-04T18:38:15.258Z,3.20
2023-03-04T18:40:44.894Z,3.20
2023-03-04T18:43:12.261Z,3.17
2023-03-04T18:45:39.581Z,3.77
2023-03-04T18:48:06.976Z,3.13
2023-03-04T18:50:34.313Z,2.67
2023-03-04T18:53:01.579Z,3.10
2023-03-04T18:55:29.229Z,3.10
2023-03-04T18:57:59.042Z,2.80
2023-03-04T19:00:26.418Z,3.63
2023-03-04T19:03:11.139Z,3.10
2023-03-04T19:05:39.167Z,2.97
2023-03-04T19:08:06.800Z,5.33
2023-03-04T19:10:34.303Z,9.17
2023-03-04T19:13:02.125Z,4.90
2023-03-04T19:15:29.869Z,2.50
2023-03-04T19:17:57.100Z,2.60
2023-03-04T19:20:24.507Z,2.60
2023-03-04T19:22:51.821Z,2.40
2023-03-04T19:25:19.108Z,2.80
2023-03-04T19:27:46.338Z,2.37
2023-03-04T19:30:13.816Z,3.27
2023-03-04T19:32:41.088Z,2.07
2023-03-04T19:35:08.723Z,2.60
2023-03-04T19:37:35.978Z,2.87
2023-03-04T19:40:03.284Z,2.70
2023-03-04T19:42:30.604Z,2.23
2023-03-04T19:44:58.006Z,2.03
2023-03-04T19:47:25.332Z,2.53
2023-03-04T19:49:52.783Z,2.67
2023-03-04T19:52:20.336Z,3.03
2023-03-04T19:54:47.656Z,2.77
2023-03-04T19:57:14.976Z,2.60
2023-03-04T19:59:42.585Z,2.40
2023-03-04T20:02:09.776Z,2.93
2023-03-04T20:04:37.026Z,2.67
2023-03-04T20:07:04.478Z,2.90
2023-03-04T20:09:32.142Z,2.90
2023-03-04T20:11:59.655Z,2.80
2023-03-04T20:14:27.593Z,3.30
2023-03-04T20:16:55.221Z,2.63
2023-03-04T20:19:22.544Z,2.80
2023-03-04T20:21:49.825Z,2.67
2023-03-04T20:24:19.049Z,3.00
2023-03-04T20:26:46.496Z,3.00
2023-03-04T20:29:13.727Z,2.90
2023-03-04T20:31:41.064Z,2.50
2023-03-04T20:34:09.119Z,2.90
2023-03-04T20:36:38.481Z,2.77
2023-03-04T20:39:15.401Z,2.73
2023-03-04T20:41:49.030Z,2.60
2023-03-04T20:44:16.311Z,3.23
2023-03-04T20:46:46.016Z,2.67
2023-03-04T20:49:13.443Z,3.23
2023-03-04T20:51:40.777Z,2.90
2023-03-04T20:54:08.400Z,2.57
2023-03-04T20:56:35.941Z,2.60
2023-03-04T20:59:04.837Z,3.13
2023-03-04T21:01:32.236Z,3.00
2023-03-04T21:04:00.433Z,3.13
2023-03-04T21:06:31.615Z,2.67
2023-03-04T21:09:02.954Z,3.53
2023-03-04T21:11:30.366Z,3.10
2023-03-04T21:13:57.877Z,2.80
2023-03-04T21:16:26.632Z,2.93
2023-03-04T21:18:54.088Z,3.03
2023-03-04T21:21:25.791Z,3.00
2023-03-04T21:23:53.888Z,2.57
2023-03-04T21:26:22.708Z,2.60
2023-03-04T21:28:50.940Z,2.80
2023-03-04T21:31:23.155Z,3.30
2023-03-04T21:33:50.724Z,3.17
2023-03-04T21:36:17.974Z,2.97
2023-03-04T21:38:45.511Z,2.87
2023-03-04T21:41:16.607Z,3.43
2023-03-04T21:43:44.221Z,3.23
2023-03-04T21:46:12.438Z,3.30
2023-03-04T21:48:40.881Z,2.90
2023-03-04T21:51:09.079Z,5.27
2023-03-04T21:53:36.904Z,7.67
2023-03-04T21:56:05.121Z,2.80
2023-03-04T21:58:35.010Z,2.93
2023-03-04T22:01:09.801Z,2.90
2023-03-04T22:03:37.333Z,2.57
2023-03-04T22:06:05.860Z,2.60
2023-03-04T22:08:33.153Z,2.83
2023-03-04T22:11:03.495Z,2.80
2023-03-04T22:13:31.117Z,3.00
2023-03-04T22:15:59.153Z,2.80
2023-03-04T22:18:26.696Z,2.83
2023-03-04T22:20:59.787Z,2.87
2023-03-04T22:23:27.058Z,2.67
2023-03-04T22:25:55.604Z,2.57
2023-03-04T22:28:25.100Z,2.57
2023-03-04T22:30:52.672Z,2.87
2023-03-04T22:33:20.023Z,2.80
2023-03-04T22:35:47.357Z,2.70
2023-03-04T22:38:14.754Z,2.40
2023-03-04T22:40:42.112Z,2.77
2023-03-04T22:43:09.338Z,2.37
2023-03-04T22:45:36.655Z,2.53
2023-03-04T22:48:04.199Z,2.77
2023-03-04T22:50:31.437Z,2.37
2023-03-04T22:52:59.313Z,2.33
2023-03-04T22:55:26.689Z,2.63
2023-03-04T22:57:54.209Z,2.63
2023-03-04T23:00:25.756Z,2.63
2023-03-04T23:02:53.060Z,2.53
2023-03-04T23:05:20.989Z,2.57
2023-03-04T23:07:49.394Z,2.60
2023-03-04T23:10:19.188Z,2.43
2023-03-04T23:12:46.574Z,2.60
2023-03-04T23:15:15.073Z,2.23
2023-03-04T23:17:42.921Z,2.50
2023-03-04T23:20:14.000Z,2.80
2023-03-04T23:22:41.562Z,2.70
2023-03-04T23:25:09.060Z,2.80
2023-03-04T23:27:37.497Z,2.80
2023-03-04T23:30:06.080Z,2.40
2023-03-04T23:32:33.637Z,2.47
2023-03-04T23:35:00.930Z,2.30
2023-03-04T23:37:28.237Z,2.30
2023-03-04T23:39:55.454Z,2.13
2023-03-04T23:42:22.716Z,2.70
2023-03-04T23:44:49.999Z,2.23
2023-03-04T23:47:17.274Z,2.00
2023-03-04T23:49:44.500Z,2.10
2023-03-04T23:52:11.791Z,2.90
2023-03-04T23:54:39.131Z,2.60
2023-03-04T23:57:06.352Z,2.70
2023-03-04T23:59:33.728Z,2.60
